sensor_id;sensor_type;location;lat;lon;timestamp;pressure;altitude;pressure_sealevel;temperature;humidity
3428;BME280;1727;42.624;23.406;2023-04-03T00:00:06;94247.78;;;9.66;68.85
3428;BME280;1727;42.624;23.406;2023-04-03T00:02:33;94244.75;;;9.71;69.43
3428;BME280;1727;42.624;23.406;2023-04-03T00:05:00;94244.19;;;9.67;69.15
3428;BME280;1727;42.624;23.406;2023-04-03T00:07:27;94242.94;;;9.71;69.22
3428;BME280;1727;42.624;23.406;2023-04-03T00:09:55;94244.88;;;9.69;68.66
3428;BME280;1727;42.624;23.406;2023-04-03T00:12:22;94240.63;;;9.68;70.34
3428;BME280;1727;42.624;23.406;2023-04-03T00:14:48;94240.63;;;9.68;69.81
3428;BME280;1727;42.624;23.406;2023-04-03T00:17:15;94239.94;;;9.66;68.93
3428;BME280;1727;42.624;23.406;2023-04-03T00:19:42;94234.16;;;9.62;68.44
3428;BME280;1727;42.624;23.406;2023-04-03T00:22:09;94222.44;;;9.57;69.13
3428;BME280;1727;42.624;23.406;2023-04-03T00:24:35;94228.91;;;9.53;69.95
3428;BME280;1727;42.624;23.406;2023-04-03T00:27:03;94234.31;;;9.42;69.81
3428;BME280;1727;42.624;23.406;2023-04-03T00:29:30;94229.34;;;9.39;70.39
3428;BME280;1727;42.624;23.406;2023-04-03T00:31:57;94229.22;;;9.30;70.42
3428;BME280;1727;42.624;23.406;2023-04-03T00:34:24;94225.22;;;9.17;70.82
3428;BME280;1727;42.624;23.406;2023-04-03T00:36:51;94238.16;;;9.18;71.44
3428;BME280;1727;42.624;23.406;2023-04-03T00:39:17;94224.09;;;9.19;71.56
3428;BME280;1727;42.624;23.406;2023-04-03T00:41:44;94228.13;;;9.14;71.30
3428;BME280;1727;42.624;23.406;2023-04-03T00:45:20;94230.59;;;9.15;72.20
3428;BME280;1727;42.624;23.406;2023-04-03T00:47:11;94230.19;;;9.10;72.60
3428;BME280;1727;42.624;23.406;2023-04-03T00:49:40;94225.50;;;9.14;71.71
3428;BME280;1727;42.624;23.406;2023-04-03T00:52:10;94235.13;;;9.13;72.41
3428;BME280;1727;42.624;23.406;2023-04-03T00:54:38;94230.19;;;9.10;72.46
3428;BME280;1727;42.624;23.406;2023-04-03T00:57:07;94236.38;;;9.09;72.26
3428;BME280;1727;42.624;23.406;2023-04-03T00:59:39;94231.97;;;9.10;72.97
3428;BME280;1727;42.624;23.406;2023-04-03T01:02:09;94230.88;;;9.12;72.22
3428;BME280;1727;42.624;23.406;2023-04-03T01:04:38;94225.50;;;9.04;72.08
3428;BME280;1727;42.624;23.406;2023-04-03T01:07:07;94235.41;;;9.00;71.88
3428;BME280;1727;42.624;23.406;2023-04-03T01:09:35;94234.44;;;8.92;71.90
3428;BME280;1727;42.624;23.406;2023-04-03T01:12:13;94225.88;;;8.80;72.04
3428;BME280;1727;42.624;23.406;2023-04-03T01:14:43;94236.50;;;8.79;73.65
3428;BME280;1727;42.624;23.406;2023-04-03T01:17:28;94239.38;;;8.76;73.46
3428;BME280;1727;42.624;23.406;2023-04-03T01:20:12;94230.28;;;8.70;73.80
3428;BME280;1727;42.624;23.406;2023-04-03T01:22:48;94234.56;;;8.71;73.31
3428;BME280;1727;42.624;23.406;2023-04-03T01:25:18;94223.69;;;8.76;73.65
3428;BME280;1727;42.624;23.406;2023-04-03T01:27:45;94232.50;;;8.75;72.82
3428;BME280;1727;42.624;23.406;2023-04-03T01:30:17;94237.31;;;8.79;72.79
3428;BME280;1727;42.624;23.406;2023-04-03T01:32:46;94234.44;;;8.82;74.25
3428;BME280;1727;42.624;23.406;2023-04-03T01:35:13;94233.31;;;8.85;74.33
3428;BME280;1727;42.624;23.406;2023-04-03T01:37:40;94236.22;;;8.82;74.04
3428;BME280;1727;42.624;23.406;2023-04-03T01:40:07;94239.53;;;8.84;74.00
3428;BME280;1727;42.624;23.406;2023-04-03T01:42:34;94238.97;;;8.80;73.24
3428;BME280;1727;42.624;23.406;2023-04-03T01:45:01;94236.22;;;8.82;72.68
3428;BME280;1727;42.624;23.406;2023-04-03T01:47:28;94240.75;;;8.80;72.70
3428;BME280;1727;42.624;23.406;2023-04-03T01:49:56;94242.69;;;8.68;73.01
3428;BME280;1727;42.624;23.406;2023-04-03T01:52:23;94248.69;;;8.59;73.87
3428;BME280;1727;42.624;23.406;2023-04-03T01:54:50;94254.59;;;8.51;73.83
3428;BME280;1727;42.624;23.406;2023-04-03T01:57:16;94254.88;;;8.48;73.94
3428;BME280;1727;42.624;23.406;2023-04-03T01:59:43;94251.69;;;8.45;74.14
3428;BME280;1727;42.624;23.406;2023-04-03T02:02:10;94247.84;;;8.49;74.09
3428;BME280;1727;42.624;23.406;2023-04-03T02:04:39;94250.06;;;8.53;74.02
3428;BME280;1727;42.624;23.406;2023-04-03T02:07:08;94250.06;;;8.53;74.06
3428;BME280;1727;42.624;23.406;2023-04-03T02:09:35;94251.31;;;8.59;73.64
3428;BME280;1727;42.624;23.406;2023-04-03T02:12:01;94255.31;;;8.63;73.36
3428;BME280;1727;42.624;23.406;2023-04-03T02:14:28;94248.72;;;8.68;73.07
3428;BME280;1727;42.624;23.406;2023-04-03T02:16:55;94243.47;;;8.59;73.04
3428;BME280;1727;42.624;23.406;2023-04-03T02:19:22;94247.09;;;8.67;73.40
3428;BME280;1727;42.624;23.406;2023-04-03T02:21:48;94246.53;;;8.74;72.83
3428;BME280;1727;42.624;23.406;2023-04-03T02:24:17;94242.97;;;8.75;72.95
3428;BME280;1727;42.624;23.406;2023-04-03T02:26:43;94242.69;;;8.78;72.56
3428;BME280;1727;42.624;23.406;2023-04-03T02:29:10;94242.41;;;8.81;72.22
3428;BME280;1727;42.624;23.406;2023-04-03T02:31:37;94239.38;;;8.76;72.23
3428;BME280;1727;42.624;23.406;2023-04-03T02:34:04;94240.47;;;8.73;72.88
3428;BME280;1727;42.624;23.406;2023-04-03T02:36:30;94232.72;;;8.62;72.74
3428;BME280;1727;42.624;23.406;2023-04-03T02:38:57;94243.88;;;8.54;73.29
3428;BME280;1727;42.624;23.406;2023-04-03T02:41:25;94237.94;;;8.43;72.86
3428;BME280;1727;42.624;23.406;2023-04-03T02:43:58;94236.66;;;8.37;73.80
3428;BME280;1727;42.624;23.406;2023-04-03T02:46:25;94241.41;;;8.32;74.17
3428;BME280;1727;42.624;23.406;2023-04-03T02:48:52;94233.84;;;8.29;74.31
3428;BME280;1727;42.624;23.406;2023-04-03T02:51:19;94230.13;;;8.22;74.69
3428;BME280;1727;42.624;23.406;2023-04-03T02:53:45;94228.72;;;8.18;75.84
3428;BME280;1727;42.624;23.406;2023-04-03T02:56:12;94225.84;;;8.21;76.74
3428;BME280;1727;42.624;23.406;2023-04-03T02:58:40;94222.97;;;8.24;76.64
3428;BME280;1727;42.624;23.406;2023-04-03T03:01:07;94218.44;;;8.26;76.68
3428;BME280;1727;42.624;23.406;2023-04-03T03:03:34;94215.81;;;8.26;76.12
3428;BME280;1727;42.624;23.406;2023-04-03T03:06:02;94213.91;;;8.28;75.26
3428;BME280;1727;42.624;23.406;2023-04-03T03:08:29;94209.63;;;8.27;74.79
3428;BME280;1727;42.624;23.406;2023-04-03T03:10:55;94205.63;;;8.23;74.58
3428;BME280;1727;42.624;23.406;2023-04-03T03:13:22;94203.44;;;8.18;75.18
3428;BME280;1727;42.624;23.406;2023-04-03T03:15:51;94203.13;;;8.12;75.29
3428;BME280;1727;42.624;23.406;2023-04-03T03:18:17;94203.50;;;8.07;75.71
3428;BME280;1727;42.624;23.406;2023-04-03T03:20:44;94210.91;;;8.02;75.57
3428;BME280;1727;42.624;23.406;2023-04-03T03:23:11;94208.69;;;7.97;76.22
3428;BME280;1727;42.624;23.406;2023-04-03T03:25:38;94211.84;;;7.91;76.11
3428;BME280;1727;42.624;23.406;2023-04-03T03:28:05;94207.56;;;7.90;75.93
3428;BME280;1727;42.624;23.406;2023-04-03T03:30:33;94205.22;;;7.87;75.72
3428;BME280;1727;42.624;23.406;2023-04-03T03:33:01;94206.44;;;7.83;75.73
3428;BME280;1727;42.624;23.406;2023-04-03T03:35:28;94211.66;;;7.83;76.90
3428;BME280;1727;42.624;23.406;2023-04-03T03:37:54;94210.16;;;7.81;77.68
3428;BME280;1727;42.624;23.406;2023-04-03T03:40:21;94207.34;;;7.72;77.32
3428;BME280;1727;42.624;23.406;2023-04-03T03:42:48;94193.84;;;7.67;77.38
3428;BME280;1727;42.624;23.406;2023-04-03T03:45:15;94208.47;;;7.80;77.43
3428;BME280;1727;42.624;23.406;2023-04-03T03:47:42;94210.03;;;7.82;77.14
3428;BME280;1727;42.624;23.406;2023-04-03T03:50:11;94206.22;;;7.65;77.03
3428;BME280;1727;42.624;23.406;2023-04-03T03:52:37;94215.41;;;7.60;77.20
3428;BME280;1727;42.624;23.406;2023-04-03T03:55:04;94214.56;;;7.59;77.82
3428;BME280;1727;42.624;23.406;2023-04-03T03:57:31;94222.69;;;7.66;77.90
3428;BME280;1727;42.624;23.406;2023-04-03T03:59:58;94225.75;;;7.71;78.24
3428;BME280;1727;42.624;23.406;2023-04-03T04:02:25;94225.50;;;7.74;78.00
3428;BME280;1727;42.624;23.406;2023-04-03T04:04:52;94213.47;;;7.83;77.70
3428;BME280;1727;42.624;23.406;2023-04-03T04:07:20;94207.84;;;7.87;77.38
3428;BME280;1727;42.624;23.406;2023-04-03T04:09:47;94215.53;;;7.89;77.15
3428;BME280;1727;42.624;23.406;2023-04-03T04:12:13;94211.56;;;7.94;77.07
3428;BME280;1727;42.624;23.406;2023-04-03T04:14:41;94209.34;;;7.90;76.80
3428;BME280;1727;42.624;23.406;2023-04-03T04:17:08;94221.72;;;7.88;75.97
3428;BME280;1727;42.624;23.406;2023-04-03T04:19:35;94217.25;;;7.78;77.02
3428;BME280;1727;42.624;23.406;2023-04-03T04:22:01;94220.00;;;7.77;77.57
3428;BME280;1727;42.624;23.406;2023-04-03T04:24:29;94223.84;;;7.73;77.36
3428;BME280;1727;42.624;23.406;2023-04-03T04:26:56;94224.34;;;7.67;77.51
3428;BME280;1727;42.624;23.406;2023-04-03T04:29:23;94234.28;;;7.73;77.90
3428;BME280;1727;42.624;23.406;2023-04-03T04:31:50;94232.50;;;7.73;77.80
3428;BME280;1727;42.624;23.406;2023-04-03T04:34:17;94231.50;;;7.65;78.21
3428;BME280;1727;42.624;23.406;2023-04-03T04:36:44;94223.84;;;7.73;78.02
3428;BME280;1727;42.624;23.406;2023-04-03T04:39:10;94236.84;;;7.84;78.57
3428;BME280;1727;42.624;23.406;2023-04-03T04:41:39;94230.38;;;7.88;77.85
3428;BME280;1727;42.624;23.406;2023-04-03T04:44:05;94237.13;;;7.91;77.27
3428;BME280;1727;42.624;23.406;2023-04-03T04:46:33;94246.22;;;7.96;76.95
3428;BME280;1727;42.624;23.406;2023-04-03T04:49:00;94232.75;;;7.91;77.35
3428;BME280;1727;42.624;23.406;2023-04-03T04:51:27;94245.44;;;8.05;78.49
3428;BME280;1727;42.624;23.406;2023-04-03T04:53:53;94243.53;;;8.07;77.97
3428;BME280;1727;42.624;23.406;2023-04-03T04:56:20;94253.59;;;8.12;77.06
3428;BME280;1727;42.624;23.406;2023-04-03T04:58:48;94260.34;;;8.15;80.19
3428;BME280;1727;42.624;23.406;2023-04-03T05:01:15;94270.00;;;7.93;78.11
3428;BME280;1727;42.624;23.406;2023-04-03T05:03:43;94275.06;;;7.85;78.65
3428;BME280;1727;42.624;23.406;2023-04-03T05:06:11;94271.47;;;7.86;79.12
3428;BME280;1727;42.624;23.406;2023-04-03T05:08:38;94280.06;;;7.98;79.02
3428;BME280;1727;42.624;23.406;2023-04-03T05:11:04;94282.72;;;8.07;79.08
3428;BME280;1727;42.624;23.406;2023-04-03T05:13:31;94284.44;;;8.18;78.89
3428;BME280;1727;42.624;23.406;2023-04-03T05:15:59;94279.38;;;8.26;79.16
3428;BME280;1727;42.624;23.406;2023-04-03T05:18:26;94275.53;;;8.30;79.19
3428;BME280;1727;42.624;23.406;2023-04-03T05:20:53;94273.44;;;8.45;79.14
3428;BME280;1727;42.624;23.406;2023-04-03T05:23:19;94276.06;;;8.45;78.76
3428;BME280;1727;42.624;23.406;2023-04-03T05:25:46;94276.47;;;8.50;77.39
3428;BME280;1727;42.624;23.406;2023-04-03T05:28:14;94274.84;;;8.59;78.46
3428;BME280;1727;42.624;23.406;2023-04-03T05:30:41;94275.53;;;8.61;77.62
3428;BME280;1727;42.624;23.406;2023-04-03T05:33:09;94278.00;;;8.62;77.74
3428;BME280;1727;42.624;23.406;2023-04-03T05:35:37;94272.38;;;8.67;79.06
3428;BME280;1727;42.624;23.406;2023-04-03T05:38:04;94259.88;;;8.71;78.46
3428;BME280;1727;42.624;23.406;2023-04-03T05:40:31;94257.69;;;8.76;78.84
3428;BME280;1727;42.624;23.406;2023-04-03T05:42:58;94269.94;;;8.75;76.90
3428;BME280;1727;42.624;23.406;2023-04-03T05:45:24;94267.75;;;8.80;77.18
3428;BME280;1727;42.624;23.406;2023-04-03T05:47:51;94253.69;;;8.81;77.57
3428;BME280;1727;42.624;23.406;2023-04-03T05:50:20;94257.16;;;8.91;77.44
3428;BME280;1727;42.624;23.406;2023-04-03T05:52:49;94265.00;;;8.91;76.27
3428;BME280;1727;42.624;23.406;2023-04-03T05:55:16;94256.72;;;8.96;78.17
3428;BME280;1727;42.624;23.406;2023-04-03T05:57:43;94253.59;;;9.12;78.03
3428;BME280;1727;42.624;23.406;2023-04-03T06:00:13;94257.03;;;9.22;76.33
3428;BME280;1727;42.624;23.406;2023-04-03T06:02:41;94258.16;;;9.29;75.36
3428;BME280;1727;42.624;23.406;2023-04-03T06:05:08;94246.56;;;9.41;75.65
3428;BME280;1727;42.624;23.406;2023-04-03T06:07:38;94255.13;;;9.43;74.39
3428;BME280;1727;42.624;23.406;2023-04-03T06:10:06;94247.13;;;9.54;75.42
3428;BME280;1727;42.624;23.406;2023-04-03T06:12:34;94252.88;;;9.68;75.40
3428;BME280;1727;42.624;23.406;2023-04-03T06:15:01;94248.47;;;9.68;74.13
3428;BME280;1727;42.624;23.406;2023-04-03T06:17:27;94253.53;;;9.79;72.55
3428;BME280;1727;42.624;23.406;2023-04-03T06:19:55;94254.38;;;9.89;72.71
3428;BME280;1727;42.624;23.406;2023-04-03T06:22:23;94253.78;;;9.96;73.42
3428;BME280;1727;42.624;23.406;2023-04-03T06:24:53;94250.66;;;9.73;74.53
3428;BME280;1727;42.624;23.406;2023-04-03T06:27:20;94255.25;;;9.61;74.98
3428;BME280;1727;42.624;23.406;2023-04-03T06:29:46;94257.59;;;9.54;75.82
3428;BME280;1727;42.624;23.406;2023-04-03T06:32:14;94260.34;;;9.43;75.21
3428;BME280;1727;42.624;23.406;2023-04-03T06:34:41;94266.13;;;9.47;75.15
3428;BME280;1727;42.624;23.406;2023-04-03T06:37:10;94275.50;;;9.59;74.69
3428;BME280;1727;42.624;23.406;2023-04-03T06:39:37;94274.94;;;9.65;75.33
3428;BME280;1727;42.624;23.406;2023-04-03T06:42:05;94272.34;;;9.55;76.28
3428;BME280;1727;42.624;23.406;2023-04-03T06:44:32;94271.53;;;9.55;76.05
3428;BME280;1727;42.624;23.406;2023-04-03T06:47:00;94269.16;;;9.71;76.90
3428;BME280;1727;42.624;23.406;2023-04-03T06:49:27;94267.91;;;9.85;75.69
3428;BME280;1727;42.624;23.406;2023-04-03T06:51:54;94260.28;;;9.91;76.40
3428;BME280;1727;42.624;23.406;2023-04-03T06:54:21;94260.41;;;10.00;74.86
3428;BME280;1727;42.624;23.406;2023-04-03T06:56:48;94267.69;;;10.06;75.07
3428;BME280;1727;42.624;23.406;2023-04-03T06:59:17;94267.84;;;10.14;75.41
3428;BME280;1727;42.624;23.406;2023-04-03T07:01:43;94272.38;;;10.21;74.92
3428;BME280;1727;42.624;23.406;2023-04-03T07:04:10;94269.28;;;10.36;73.87
3428;BME280;1727;42.624;23.406;2023-04-03T07:06:37;94261.94;;;10.49;74.97
3428;BME280;1727;42.624;23.406;2023-04-03T07:09:04;94260.47;;;10.64;74.18
3428;BME280;1727;42.624;23.406;2023-04-03T07:11:32;94259.16;;;10.78;72.68
3428;BME280;1727;42.624;23.406;2023-04-03T07:14:00;94247.47;;;10.90;71.83
3428;BME280;1727;42.624;23.406;2023-04-03T07:16:28;94243.69;;;11.02;71.70
3428;BME280;1727;42.624;23.406;2023-04-03T07:18:56;94239.19;;;11.12;71.12
3428;BME280;1727;42.624;23.406;2023-04-03T07:21:22;94244.34;;;11.22;70.14
3428;BME280;1727;42.624;23.406;2023-04-03T07:23:49;94242.78;;;11.29;68.85
3428;BME280;1727;42.624;23.406;2023-04-03T07:26:16;94239.94;;;11.40;69.38
3428;BME280;1727;42.624;23.406;2023-04-03T07:28:43;94238.69;;;11.53;67.96
3428;BME280;1727;42.624;23.406;2023-04-03T07:31:14;94237.50;;;11.65;68.43
3428;BME280;1727;42.624;23.406;2023-04-03T07:33:43;94240.41;;;11.79;67.13
3428;BME280;1727;42.624;23.406;2023-04-03T07:36:15;94223.13;;;11.95;67.02
3428;BME280;1727;42.624;23.406;2023-04-03T07:38:42;94232.97;;;11.93;67.21
3428;BME280;1727;42.624;23.406;2023-04-03T07:41:12;94224.72;;;11.88;68.10
3428;BME280;1727;42.624;23.406;2023-04-03T07:43:42;94223.09;;;11.87;68.24
3428;BME280;1727;42.624;23.406;2023-04-03T07:46:08;94229.16;;;11.87;68.56
3428;BME280;1727;42.624;23.406;2023-04-03T07:48:36;94227.34;;;11.88;68.99
3428;BME280;1727;42.624;23.406;2023-04-03T07:51:04;94230.00;;;11.88;69.97
3428;BME280;1727;42.624;23.406;2023-04-03T07:53:32;94227.06;;;11.91;69.63
3428;BME280;1727;42.624;23.406;2023-04-03T07:55:59;94231.63;;;11.89;68.91
3428;BME280;1727;42.624;23.406;2023-04-03T07:58:28;94220.09;;;11.64;70.60
3428;BME280;1727;42.624;23.406;2023-04-03T08:00:54;94225.66;;;11.43;70.87
3428;BME280;1727;42.624;23.406;2023-04-03T08:03:22;94222.31;;;11.33;73.06
3428;BME280;1727;42.624;23.406;2023-04-03T08:05:49;94225.59;;;11.35;73.64
3428;BME280;1727;42.624;23.406;2023-04-03T08:08:19;94224.94;;;11.33;72.41
3428;BME280;1727;42.624;23.406;2023-04-03T08:10:48;94228.75;;;11.21;73.94
3428;BME280;1727;42.624;23.406;2023-04-03T08:13:15;94224.66;;;10.91;75.52
3428;BME280;1727;42.624;23.406;2023-04-03T08:15:42;94219.13;;;10.94;75.26
3428;BME280;1727;42.624;23.406;2023-04-03T08:18:09;94223.16;;;10.70;76.06
3428;BME280;1727;42.624;23.406;2023-04-03T08:20:37;94215.16;;;10.72;75.38
3428;BME280;1727;42.624;23.406;2023-04-03T08:23:05;94220.47;;;10.80;76.22
3428;BME280;1727;42.624;23.406;2023-04-03T08:25:34;94206.91;;;10.84;75.78
3428;BME280;1727;42.624;23.406;2023-04-03T08:28:01;94210.72;;;10.90;74.78
3428;BME280;1727;42.624;23.406;2023-04-03T08:30:29;94203.53;;;10.92;74.86
3428;BME280;1727;42.624;23.406;2023-04-03T08:32:55;94205.19;;;11.11;75.21
3428;BME280;1727;42.624;23.406;2023-04-03T08:35:22;94207.94;;;11.27;73.76
3428;BME280;1727;42.624;23.406;2023-04-03T08:37:49;94198.88;;;11.39;74.50
3428;BME280;1727;42.624;23.406;2023-04-03T08:40:16;94200.78;;;11.55;73.55
3428;BME280;1727;42.624;23.406;2023-04-03T08:42:54;94188.88;;;11.61;72.96
3428;BME280;1727;42.624;23.406;2023-04-03T08:45:40;94185.56;;;11.85;71.84
3428;BME280;1727;42.624;23.406;2023-04-03T08:48:12;94185.69;;;12.01;72.14
3428;BME280;1727;42.624;23.406;2023-04-03T08:50:41;94182.78;;;12.12;69.89
3428;BME280;1727;42.624;23.406;2023-04-03T08:53:13;94188.44;;;12.25;69.13
3428;BME280;1727;42.624;23.406;2023-04-03T08:55:43;94180.44;;;12.43;68.41
3428;BME280;1727;42.624;23.406;2023-04-03T08:58:14;94176.06;;;12.52;68.05
3428;BME280;1727;42.624;23.406;2023-04-03T09:00:45;94173.28;;;12.61;67.74
3428;BME280;1727;42.624;23.406;2023-04-03T09:03:15;94173.00;;;12.73;67.76
3428;BME280;1727;42.624;23.406;2023-04-03T09:05:47;94172.19;;;12.80;68.00
3428;BME280;1727;42.624;23.406;2023-04-03T09:08:22;94166.78;;;12.90;66.97
3428;BME280;1727;42.624;23.406;2023-04-03T09:10:59;94162.53;;;13.05;66.88
3428;BME280;1727;42.624;23.406;2023-04-03T09:13:35;94165.19;;;13.21;66.10
3428;BME280;1727;42.624;23.406;2023-04-03T09:16:10;94154.66;;;13.21;64.86
3428;BME280;1727;42.624;23.406;2023-04-03T09:18:46;94149.56;;;13.28;nan
3428;BME280;1727;42.624;23.406;2023-04-03T09:21:20;94148.91;;;13.34;65.46
3428;BME280;1727;42.624;23.406;2023-04-03T09:23:51;94149.56;;;13.28;63.69
3428;BME280;1727;42.624;23.406;2023-04-03T09:26:24;94145.41;;;13.01;63.76
3428;BME280;1727;42.624;23.406;2023-04-03T09:28:54;94149.19;;;13.15;64.10
3428;BME280;1727;42.624;23.406;2023-04-03T09:31:24;94141.66;;;13.28;64.71
3428;BME280;1727;42.624;23.406;2023-04-03T09:33:55;94141.00;;;13.42;64.64
3428;BME280;1727;42.624;23.406;2023-04-03T09:36:38;94136.03;;;13.55;64.60
3428;BME280;1727;42.624;23.406;2023-04-03T09:39:10;94140.81;;;13.68;62.55
3428;BME280;1727;42.624;23.406;2023-04-03T09:41:37;94131.41;;;13.74;62.00
3428;BME280;1727;42.624;23.406;2023-04-03T09:44:21;94133.56;;;13.70;60.54
3428;BME280;1727;42.624;23.406;2023-04-03T09:46:48;94131.75;;;13.54;61.00
3428;BME280;1727;42.624;23.406;2023-04-03T09:49:16;94133.75;;;13.60;60.40
3428;BME280;1727;42.624;23.406;2023-04-03T09:51:43;94120.41;;;13.62;59.95
3428;BME280;1727;42.624;23.406;2023-04-03T09:54:41;94122.06;;;13.47;59.81
3428;BME280;1727;42.624;23.406;2023-04-03T09:57:10;94110.00;;;13.52;59.41
3428;BME280;1727;42.624;23.406;2023-04-03T09:59:45;94118.44;;;13.40;59.45
3428;BME280;1727;42.624;23.406;2023-04-03T10:02:28;94126.81;;;13.27;60.17
3428;BME280;1727;42.624;23.406;2023-04-03T10:04:57;94116.00;;;13.30;61.27
3428;BME280;1727;42.624;23.406;2023-04-03T10:07:30;94115.78;;;13.07;60.70
3428;BME280;1727;42.624;23.406;2023-04-03T10:09:58;94120.19;;;12.90;60.90
3428;BME280;1727;42.624;23.406;2023-04-03T10:12:25;94120.53;;;12.95;61.42
3428;BME280;1727;42.624;23.406;2023-04-03T10:14:57;94116.13;;;13.04;61.83
3428;BME280;1727;42.624;23.406;2023-04-03T10:17:33;94110.03;;;13.20;61.52
3428;BME280;1727;42.624;23.406;2023-04-03T10:20:09;94111.66;;;13.13;61.97
3428;BME280;1727;42.624;23.406;2023-04-03T10:22:46;94102.94;;;13.12;62.10
3428;BME280;1727;42.624;23.406;2023-04-03T10:25:19;94104.25;;;13.16;61.76
3428;BME280;1727;42.624;23.406;2023-04-03T10:27:53;94106.75;;;13.18;61.52
3428;BME280;1727;42.624;23.406;2023-04-03T10:30:40;94106.09;;;13.24;61.06
3428;BME280;1727;42.624;23.406;2023-04-03T10:33:29;94102.94;;;13.12;60.78
3428;BME280;1727;42.624;23.406;2023-04-03T10:36:07;94092.75;;;13.17;61.02
3428;BME280;1727;42.624;23.406;2023-04-03T10:38:43;94095.69;;;13.14;61.48
3428;BME280;1727;42.624;23.406;2023-04-03T10:41:17;94088.97;;;13.20;61.30
3428;BME280;1727;42.624;23.406;2023-04-03T10:43:54;94089.63;;;13.22;61.04
3428;BME280;1727;42.624;23.406;2023-04-03T10:46:28;94077.06;;;12.99;61.73
3428;BME280;1727;42.624;23.406;2023-04-03T10:49:10;94086.63;;;12.76;63.01
3428;BME280;1727;42.624;23.406;2023-04-03T10:51:43;94082.34;;;12.83;62.64
3428;BME280;1727;42.624;23.406;2023-04-03T10:54:13;94084.97;;;12.91;63.24
3428;BME280;1727;42.624;23.406;2023-04-03T10:56:47;94079.72;;;12.99;64.96
3428;BME280;1727;42.624;23.406;2023-04-03T10:59:22;94083.34;;;12.98;65.45
3428;BME280;1727;42.624;23.406;2023-04-03T11:01:55;94081.38;;;12.84;65.87
3428;BME280;1727;42.624;23.406;2023-04-03T11:04:24;94088.59;;;12.74;67.43
3428;BME280;1727;42.624;23.406;2023-04-03T11:06:58;94080.69;;;12.66;69.02
3428;BME280;1727;42.624;23.406;2023-04-03T11:09:28;94087.09;;;12.63;70.27
3428;BME280;1727;42.624;23.406;2023-04-03T11:12:02;94089.97;;;12.20;73.08
3428;BME280;1727;42.624;23.406;2023-04-03T11:14:32;94090.63;;;12.30;74.51
3428;BME280;1727;42.624;23.406;2023-04-03T11:17:21;94095.00;;;12.13;77.47
3428;BME280;1727;42.624;23.406;2023-04-03T11:19:57;94083.31;;;12.07;79.08
3428;BME280;1727;42.624;23.406;2023-04-03T11:22:29;94085.78;;;12.01;78.50
3428;BME280;1727;42.624;23.406;2023-04-03T11:25:04;94085.13;;;12.07;81.93
3428;BME280;1727;42.624;23.406;2023-04-03T11:27:38;94091.41;;;12.14;82.72
3428;BME280;1727;42.624;23.406;2023-04-03T11:30:11;94079.88;;;12.07;83.11
3428;BME280;1727;42.624;23.406;2023-04-03T11:32:56;94083.75;;;11.87;85.13
3428;BME280;1727;42.624;23.406;2023-04-03T11:35:27;94087.88;;;11.89;85.54
3428;BME280;1727;42.624;23.406;2023-04-03T11:37:55;94083.06;;;11.85;87.72
3428;BME280;1727;42.624;23.406;2023-04-03T11:40:25;94087.44;;;11.50;88.71
3428;BME280;1727;42.624;23.406;2023-04-03T11:42:55;94086.03;;;11.30;92.04
3428;BME280;1727;42.624;23.406;2023-04-03T11:45:37;94092.63;;;11.34;92.71
3428;BME280;1727;42.624;23.406;2023-04-03T11:51:40;94092.84;;;11.23;94.26
3428;BME280;1727;42.624;23.406;2023-04-03T11:57:44;94104.91;;;11.07;97.50
3428;BME280;1727;42.624;23.406;2023-04-03T12:09:26;94094.63;;;10.96;99.78
3428;BME280;1727;42.624;23.406;2023-04-03T12:11:55;94102.78;;;11.11;100.00
3428;BME280;1727;42.624;23.406;2023-04-03T12:14:23;94100.22;;;11.19;100.00
3428;BME280;1727;42.624;23.406;2023-04-03T12:16:53;94096.41;;;11.13;100.00
3428;BME280;1727;42.624;23.406;2023-04-03T12:19:30;94101.97;;;11.10;98.95
3428;BME280;1727;42.624;23.406;2023-04-03T12:22:15;94095.38;;;11.06;100.00
3428;BME280;1727;42.624;23.406;2023-04-03T12:24:45;94079.19;;;10.93;100.00
3428;BME280;1727;42.624;23.406;2023-04-03T12:27:33;94093.28;;;10.92;100.00
3428;BME280;1727;42.624;23.406;2023-04-03T12:30:05;94088.66;;;10.86;100.00
3428;BME280;1727;42.624;23.406;2023-04-03T12:35:36;94072.00;;;11.21;100.00
3428;BME280;1727;42.624;23.406;2023-04-03T12:38:30;94072.31;;;11.18;100.00
3428;BME280;1727;42.624;23.406;2023-04-03T12:41:16;94069.06;;;11.24;100.00
3428;BME280;1727;42.624;23.406;2023-04-03T12:43:54;94060.00;;;11.18;100.00
3428;BME280;1727;42.624;23.406;2023-04-03T12:46:28;94050.09;;;11.04;100.00
3428;BME280;1727;42.624;23.406;2023-04-03T12:48:59;94051.06;;;11.03;100.00
3428;BME280;1727;42.624;23.406;2023-04-03T12:51:30;94043.19;;;11.03;100.00
3428;BME280;1727;42.624;23.406;2023-04-03T12:54:03;94048.31;;;10.87;100.00
3428;BME280;1727;42.624;23.406;2023-04-03T12:56:33;94041.47;;;10.94;100.00
3428;BME280;1727;42.624;23.406;2023-04-03T12:59:14;94043.78;;;10.97;100.00
3428;BME280;1727;42.624;23.406;2023-04-03T13:01:42;94044.38;;;10.91;100.00
3428;BME280;1727;42.624;23.406;2023-04-03T13:04:10;94041.47;;;10.94;100.00
3428;BME280;1727;42.624;23.406;2023-04-03T13:06:39;94054.38;;;10.88;100.00
3428;BME280;1727;42.624;23.406;2023-04-03T13:09:19;94056.84;;;10.89;100.00
3428;BME280;1727;42.624;23.406;2023-04-03T13:11:50;94050.34;;;10.75;100.00
3428;BME280;1727;42.624;23.406;2023-04-03T13:14:20;94056.41;;;10.76;100.00
3428;BME280;1727;42.624;23.406;2023-04-03T13:16:55;94054.41;;;10.70;100.00
3428;BME280;1727;42.624;23.406;2023-04-03T13:19:23;94045.63;;;10.61;100.00
3428;BME280;1727;42.624;23.406;2023-04-03T13:21:56;94038.94;;;10.67;100.00
3428;BME280;1727;42.624;23.406;2023-04-03T13:24:26;94041.81;;;10.55;100.00
3428;BME280;1727;42.624;23.406;2023-04-03T13:26:54;94041.72;;;10.65;100.00
3428;BME280;1727;42.624;23.406;2023-04-03T13:29:25;94031.38;;;10.64;100.00
3428;BME280;1727;42.624;23.406;2023-04-03T13:31:54;94033.41;;;10.70;100.00
3428;BME280;1727;42.624;23.406;2023-04-03T13:34:23;94035.91;;;10.71;100.00
3428;BME280;1727;42.624;23.406;2023-04-03T13:36:59;94039.25;;;10.64;100.00
3428;BME280;1727;42.624;23.406;2023-04-03T13:39:28;94032.81;;;10.76;100.00
3428;BME280;1727;42.624;23.406;2023-04-03T13:41:59;94034.59;;;10.75;100.00
3428;BME280;1727;42.624;23.406;2023-04-03T13:44:33;94035.84;;;10.89;100.00
3428;BME280;1727;42.624;23.406;2023-04-03T13:47:15;94037.28;;;10.83;100.00